MOL Emerald — VRFB8 — position and weather

sailwx.info

Track history (hours):
 
Tides and Currents Weather Stations Pressure Air Temp Water Temp Dewpoint Dewpoint Depression Visibility Wind Speed Wind Dir Waves Ship Positions

MOL Emerald

Last reported at 2017-Oct-02 07:14 UTC. Time now 2017-Oct-17 04:04 UTC.
Position N 01°12' E 103°38'.
Warning: this ship's position is 14 days out of date.

Length 294 m; draft 11.6 m.

Type: Ship (hazmat cat A). MMSI: 477207700.

Date/timePositionNaut miles runAvg speedWind from/ knotsBaromVisibWave heightAir tempDewpointWater temp
2017-Oct-02 07:14N 01°12' E 103°38'1 3.0
2017-Oct-02 06:59N 01°12' E 103°39'1 2.6
2017-Oct-02 06:30N 01°12' E 103°40'1 1.6
2017-Oct-02 05:46N 01°13' E 103°41'1 2.9
2017-Oct-02 05:22N 01°14' E 103°42'1 2.9
2017-Oct-02 05:00N 01°14' E 103°43'22 3.4
2017-Oct-01 22:20N 01°18' E 103°20'510.0
2017-Oct-01 21:53N 01°14' E 103°24'411.1
2017-Oct-01 21:30N 01°13' E 103°28'611.5
2017-Oct-01 21:00N 01°12' E 103°33'611.4
2017-Oct-01 20:30N 01°12' E 103°39'4 8.7
2017-Oct-01 20:00N 01°14' E 103°42'4 8.4
2017-Oct-01 19:30N 01°17' E 103°46'1 0.9
2017-Oct-01 18:58N 01°17' E 103°46'0 0.0
2017-Oct-01 18:28N 01°17' E 103°46'0 0.0
2017-Oct-01 17:58N 01°17' E 103°46'0 0.0
2017-Oct-01 17:28N 01°17' E 103°46'0 0.0
2017-Oct-01 16:55N 01°17' E 103°46'0 0.0
2017-Oct-01 16:28N 01°17' E 103°46'0 0.0
2017-Oct-01 15:58N 01°17' E 103°46'0 0.0
2017-Oct-01 15:28N 01°17' E 103°46'0 0.0
2017-Oct-01 14:58N 01°17' E 103°46'0 0.0
2017-Oct-01 14:28N 01°17' E 103°46'0 0.0
2017-Oct-01 13:58N 01°17' E 103°46'0 0.0
2017-Oct-01 13:28N 01°17' E 103°46'0 0.0
2017-Oct-01 12:58N 01°17' E 103°46'0 0.0
2017-Oct-01 12:28N 01°17' E 103°46'0 0.0
2017-Oct-01 11:58N 01°17' E 103°46'715.0
2017-Oct-01 11:30N 01°13' E 103°52'2 4.0
2017-Oct-01 11:00N 01°13' E 103°53'2 2.9
2017-Oct-01 10:29N 01°14' E 103°55'918.4
2017-Oct-01 09:58N 01°17' E 103°46'0 0.0
2017-Oct-01 09:28N 01°17' E 103°46'0 0.1
2017-Oct-01 08:58N 01°17' E 103°46'0 0.0
2017-Oct-01 08:28N 01°17' E 103°46'0 0.0
2017-Oct-01 07:58N 01°17' E 103°46'0 0.0
2017-Oct-01 07:28N 01°17' E 103°46'0 0.0
2017-Oct-01 06:58N 01°17' E 103°46'0 0.0
2017-Oct-01 06:28N 01°17' E 103°46'0 0.0
2017-Oct-01 05:58N 01°17' E 103°46'0 0.0
2017-Oct-01 05:28N 01°17' E 103°46'0 0.0
2017-Oct-01 04:58N 01°17' E 103°46'0 0.0
2017-Oct-01 04:28N 01°17' E 103°46'0 0.1
2017-Oct-01 04:01N 01°17' E 103°46'1 1.7
2017-Oct-01 03:30N 01°17' E 103°45'1 1.5
2017-Oct-01 03:01N 01°17' E 103°45'  
2017-Sep-27 22:34N 22°19' E 114°07'0 0.0
2017-Sep-27 05:16N 22°19' E 114°07'12214.1
2017-Sep-26 20:38N 22°30' E 116°19'218.1
2017-Sep-26 20:30N 22°30' E 116°21'917.8
2017-Sep-26 19:58N 22°33' E 116°31'1017.3
2017-Sep-26 19:25N 22°37' E 116°40'717.5
2017-Sep-26 19:00N 22°39' E 116°48'1117.9
2017-Sep-26 18:22N 22°43' E 116°60'616.8
2017-Sep-26 18:01N 22°46' E 117°05'917.3
2017-Sep-26 17:30N 22°50' E 117°14'917.4
2017-Sep-26 17:00N 22°54' E 117°22'916.5
2017-Sep-26 16:29N 23°02' E 117°26'817.3
2017-Sep-26 16:00N 23°07' E 117°33'2017.4
2017-Sep-26 14:51N 23°18' E 117°52'618.0
2017-Sep-26 14:30N 23°21' E 117°58'1317.9
2017-Sep-26 13:45N 23°29' E 118°10'818.2
2017-Sep-26 13:17N 23°34' E 118°17'518.2
2017-Sep-26 13:00N 23°37' E 118°21'1918.1
2017-Sep-26 11:57N 23°49' E 118°38'818.3
2017-Sep-26 11:30N 23°53' E 118°45'918.5
2017-Sep-26 11:00N 23°59' E 118°53'1018.6
2017-Sep-26 10:30N 24°06' E 119°00'918.8
2017-Sep-26 10:00N 24°13' E 119°07'918.4
2017-Sep-26 09:30N 24°18' E 119°15'918.2
2017-Sep-26 09:00N 24°23' E 119°24'918.1
2017-Sep-26 08:30N 24°27' E 119°33'918.3
2017-Sep-26 08:00N 24°32' E 119°42'1018.3
2017-Sep-26 07:27N 24°37' E 119°51'818.3
2017-Sep-26 07:01N 24°42' E 119°57'918.2
2017-Sep-26 06:30N 24°49' E 120°05'918.3
2017-Sep-26 05:59N 24°53' E 120°14'714.2
2017-Sep-26 05:30N 24°58' E 120°19'  
Track history (hours):
 
Tides and Currents Weather Stations Pressure Air Temp Water Temp Dewpoint Dewpoint Depression Visibility Wind Speed Wind Dir Waves Ship Positions

MOL Emerald

Last reported at 2017-Oct-02 07:14 UTC. Time now 2017-Oct-17 04:04 UTC.
Position N 01°12' E 103°38'.
Warning: this ship's position is 14 days out of date.

Length 294 m; draft 11.6 m.

Type: Ship (hazmat cat A). MMSI: 477207700.

Date/timePositionNaut miles runAvg speedWind from/ knotsBaromVisibWave heightAir tempDewpointWater temp
2017-Oct-02 07:14N 01°12' E 103°38'1 3.0
2017-Oct-02 06:59N 01°12' E 103°39'1 2.6
2017-Oct-02 06:30N 01°12' E 103°40'1 1.6
2017-Oct-02 05:46N 01°13' E 103°41'1 2.9
2017-Oct-02 05:22N 01°14' E 103°42'1 2.9
2017-Oct-02 05:00N 01°14' E 103°43'22 3.4
2017-Oct-01 22:20N 01°18' E 103°20'510.0
2017-Oct-01 21:53N 01°14' E 103°24'411.1
2017-Oct-01 21:30N 01°13' E 103°28'611.5
2017-Oct-01 21:00N 01°12' E 103°33'611.4
2017-Oct-01 20:30N 01°12' E 103°39'4 8.7
2017-Oct-01 20:00N 01°14' E 103°42'4 8.4
2017-Oct-01 19:30N 01°17' E 103°46'1 0.9
2017-Oct-01 18:58N 01°17' E 103°46'0 0.0
2017-Oct-01 18:28N 01°17' E 103°46'0 0.0
2017-Oct-01 17:58N 01°17' E 103°46'0 0.0
2017-Oct-01 17:28N 01°17' E 103°46'0 0.0
2017-Oct-01 16:55N 01°17' E 103°46'0 0.0
2017-Oct-01 16:28N 01°17' E 103°46'0 0.0
2017-Oct-01 15:58N 01°17' E 103°46'0 0.0
2017-Oct-01 15:28N 01°17' E 103°46'0 0.0
2017-Oct-01 14:58N 01°17' E 103°46'0 0.0
2017-Oct-01 14:28N 01°17' E 103°46'0 0.0
2017-Oct-01 13:58N 01°17' E 103°46'0 0.0
2017-Oct-01 13:28N 01°17' E 103°46'0 0.0
2017-Oct-01 12:58N 01°17' E 103°46'0 0.0
2017-Oct-01 12:28N 01°17' E 103°46'0 0.0
2017-Oct-01 11:58N 01°17' E 103°46'715.0
2017-Oct-01 11:30N 01°13' E 103°52'2 4.0
2017-Oct-01 11:00N 01°13' E 103°53'2 2.9
2017-Oct-01 10:29N 01°14' E 103°55'918.4
2017-Oct-01 09:58N 01°17' E 103°46'0 0.0
2017-Oct-01 09:28N 01°17' E 103°46'0 0.1
2017-Oct-01 08:58N 01°17' E 103°46'0 0.0
2017-Oct-01 08:28N 01°17' E 103°46'0 0.0
2017-Oct-01 07:58N 01°17' E 103°46'0 0.0
2017-Oct-01 07:28N 01°17' E 103°46'0 0.0
2017-Oct-01 06:58N 01°17' E 103°46'0 0.0
2017-Oct-01 06:28N 01°17' E 103°46'0 0.0
2017-Oct-01 05:58N 01°17' E 103°46'0 0.0
2017-Oct-01 05:28N 01°17' E 103°46'0 0.0
2017-Oct-01 04:58N 01°17' E 103°46'0 0.0
2017-Oct-01 04:28N 01°17' E 103°46'0 0.1
2017-Oct-01 04:01N 01°17' E 103°46'1 1.7
2017-Oct-01 03:30N 01°17' E 103°45'1 1.5
2017-Oct-01 03:01N 01°17' E 103°45'  
2017-Sep-27 22:34N 22°19' E 114°07'0 0.0
2017-Sep-27 05:16N 22°19' E 114°07'12214.1
2017-Sep-26 20:38N 22°30' E 116°19'218.1
2017-Sep-26 20:30N 22°30' E 116°21'917.8
2017-Sep-26 19:58N 22°33' E 116°31'1017.3
2017-Sep-26 19:25N 22°37' E 116°40'717.5
2017-Sep-26 19:00N 22°39' E 116°48'1117.9
2017-Sep-26 18:22N 22°43' E 116°60'616.8
2017-Sep-26 18:01N 22°46' E 117°05'917.3
2017-Sep-26 17:30N 22°50' E 117°14'917.4
2017-Sep-26 17:00N 22°54' E 117°22'916.5
2017-Sep-26 16:29N 23°02' E 117°26'817.3
2017-Sep-26 16:00N 23°07' E 117°33'2017.4
2017-Sep-26 14:51N 23°18' E 117°52'618.0
2017-Sep-26 14:30N 23°21' E 117°58'1317.9
2017-Sep-26 13:45N 23°29' E 118°10'818.2
2017-Sep-26 13:17N 23°34' E 118°17'518.2
2017-Sep-26 13:00N 23°37' E 118°21'1918.1
2017-Sep-26 11:57N 23°49' E 118°38'818.3
2017-Sep-26 11:30N 23°53' E 118°45'918.5
2017-Sep-26 11:00N 23°59' E 118°53'1018.6
2017-Sep-26 10:30N 24°06' E 119°00'918.8
2017-Sep-26 10:00N 24°13' E 119°07'918.4
2017-Sep-26 09:30N 24°18' E 119°15'918.2
2017-Sep-26 09:00N 24°23' E 119°24'918.1
2017-Sep-26 08:30N 24°27' E 119°33'918.3
2017-Sep-26 08:00N 24°32' E 119°42'1018.3
2017-Sep-26 07:27N 24°37' E 119°51'818.3
2017-Sep-26 07:01N 24°42' E 119°57'918.2
2017-Sep-26 06:30N 24°49' E 120°05'918.3
2017-Sep-26 05:59N 24°53' E 120°14'714.2
2017-Sep-26 05:30N 24°58' E 120°19'  

Dump ship's entire track history